Time;durP1;ratioP1;P1;durP2;ratioP2;P2;SDS_P1;SDS_P2;PMS_P1;PMS_P2;Temp;Humidity;BMP_temperature;BMP_pressure;BME280_temperature;BME280_humidity;BME280_pressure;Samples;Min_cycle;Max_cycle;Signal;HPM_P1;HPM_P2
2024/01/23 00:01:33;;;;;;;;;;;-0.90;70.60;;;;;;5052378;28;20035;-70
2024/01/23 00:04:18;;;;;;;;;;;-1.00;70.80;;;;;;5052934;28;19917;-70
2024/01/23 00:06:45;;;;;;;;;;;-1.00;70.70;;;;;;5069793;28;19933;-70
2024/01/23 00:09:11;;;;;;;;;;;-0.90;71.20;;;;;;5052953;28;20362;-70
2024/01/23 00:11:37;;;;;;;;;;;-0.80;71.30;;;;;;5052552;28;20488;-70
2024/01/23 00:14:03;;;;;;;;;;;-0.60;71.10;;;;;;5070137;28;19964;-71
2024/01/23 00:16:28;;;;;;;;;;;-0.40;71.00;;;;;;5054373;28;20284;-70
2024/01/23 00:18:54;;;;;;;;;;;-0.30;70.40;;;;;;5069981;28;20027;-70
2024/01/23 00:21:20;;;;;;;;;;;-0.20;69.80;;;;;;5053717;28;19952;-71
2024/01/23 00:23:46;;;;;;;;;;;0.10;70.00;;;;;;5052747;28;19921;-70
2024/01/23 00:26:12;;;;;;;;;;;0.20;69.90;;;;;;5053637;28;20000;-70
2024/01/23 00:28:38;;;;;;;;;;;0.30;69.80;;;;;;5053947;28;19924;-70
2024/01/23 00:31:04;;;;;;;;;;;0.40;69.60;;;;;;5068752;28;20407;-70
2024/01/23 00:33:30;;;;;;;;;;;0.50;69.60;;;;;;5052524;28;19929;-70
2024/01/23 00:35:56;;;;;;;;;;;0.70;70.00;;;;;;5053342;28;20012;-69
2024/01/23 00:38:21;;;;;;;;;;;0.70;70.30;;;;;;5052969;28;20041;-70
2024/01/23 00:40:47;;;;;;;;;;;0.70;69.90;;;;;;5053853;28;19916;-70
2024/01/23 00:43:14;;;;;;;;;;;0.80;69.50;;;;;;5054258;28;20150;-70
2024/01/23 00:45:40;;;;;;;;;;;0.80;69.60;;;;;;5054107;28;19982;-70
2024/01/23 00:48:06;;;;;;;;;;;0.70;69.60;;;;;;5069053;28;19921;-70
2024/01/23 00:50:32;;;;;;;;;;;0.70;69.50;;;;;;5051805;28;20377;-70
2024/01/23 00:52:58;;;;;;;;;;;0.70;69.30;;;;;;5053180;28;19928;-71
2024/01/23 00:55:24;;;;;;;;;;;0.70;69.10;;;;;;5053572;28;20014;-70
2024/01/23 00:57:50;;;;;;;;;;;0.70;69.10;;;;;;5054111;28;19920;-70
2024/01/23 01:00:16;;;;;;;;;;;0.70;69.00;;;;;;5052786;28;20008;-70
2024/01/23 01:02:42;;;;;;;;;;;0.70;69.60;;;;;;5069087;28;20302;-70
2024/01/23 01:05:08;;;;;;;;;;;0.80;69.10;;;;;;5053737;28;19921;-70
2024/01/23 01:07:34;;;;;;;;;;;0.80;68.90;;;;;;5053598;28;19917;-70
2024/01/23 01:09:59;;;;;;;;;;;0.80;68.90;;;;;;5053683;28;19931;-70
2024/01/23 01:12:25;;;;;;;;;;;0.80;68.80;;;;;;5053197;28;19920;-70
2024/01/23 01:14:51;;;;;;;;;;;0.90;68.90;;;;;;5052034;28;19917;-70
2024/01/23 01:17:17;;;;;;;;;;;0.90;68.60;;;;;;5053243;28;20293;-70
2024/01/23 01:19:43;;;;;;;;;;;1.00;68.30;;;;;;5053874;28;20019;-70
2024/01/23 01:22:09;;;;;;;;;;;1.00;68.30;;;;;;5052963;28;20047;-71
2024/01/23 01:24:35;;;;;;;;;;;1.00;68.40;;;;;;5068735;28;19931;-71
2024/01/23 01:27:01;;;;;;;;;;;1.00;68.80;;;;;;5052111;28;19917;-70
2024/01/23 01:29:27;;;;;;;;;;;1.00;68.60;;;;;;5053457;28;20369;-70
2024/01/23 01:31:53;;;;;;;;;;;0.90;68.50;;;;;;5051474;28;19920;-70
2024/01/23 01:34:19;;;;;;;;;;;1.00;68.50;;;;;;5051860;28;19970;-70
2024/01/23 01:36:45;;;;;;;;;;;0.90;67.80;;;;;;5051923;28;20445;-70
2024/01/23 01:39:12;;;;;;;;;;;0.90;68.60;;;;;;5053371;28;19923;-70
2024/01/23 01:41:38;;;;;;;;;;;0.90;69.00;;;;;;5051411;28;19920;-70
2024/01/23 01:44:04;;;;;;;;;;;0.90;68.80;;;;;;5051952;28;19951;-70
2024/01/23 01:46:30;;;;;;;;;;;0.90;68.80;;;;;;5052864;28;19916;-70
2024/01/23 01:48:56;;;;;;;;;;;0.90;68.00;;;;;;5051542;28;19924;-70
2024/01/23 01:51:24;;;;;;;;;;;0.90;68.00;;;;;;5050865;28;19921;-70
2024/01/23 01:53:50;;;;;;;;;;;0.90;68.70;;;;;;5050933;28;20365;-70
2024/01/23 01:56:18;;;;;;;;;;;0.80;69.00;;;;;;5050837;28;20344;-70
2024/01/23 01:58:44;;;;;;;;;;;0.80;69.00;;;;;;5052190;28;19923;-70
2024/01/23 02:01:10;;;;;;;;;;;0.80;68.50;;;;;;5066267;28;19944;-70
2024/01/23 02:03:36;;;;;;;;;;;0.80;68.40;;;;;;5052104;28;20336;-70
2024/01/23 02:06:03;;;;;;;;;;;0.80;68.80;;;;;;5051270;28;19916;-69
2024/01/23 02:08:29;;;;;;;;;;;0.80;68.90;;;;;;5052595;28;19925;-70
2024/01/23 02:10:55;;;;;;;;;;;0.80;69.00;;;;;;5067379;28;20343;-70
2024/01/23 02:13:22;;;;;;;;;;;0.70;69.30;;;;;;5068125;28;20389;-70
2024/01/23 02:15:48;;;;;;;;;;;0.70;69.30;;;;;;5067802;28;19924;-69
2024/01/23 02:18:14;;;;;;;;;;;0.70;69.10;;;;;;5052483;28;19917;-69
2024/01/23 02:20:40;;;;;;;;;;;0.70;69.10;;;;;;5052144;28;20286;-70
2024/01/23 02:23:45;;;;;;;;;;;0.60;69.30;;;;;;5052401;28;19942;-70
2024/01/23 02:26:29;;;;;;;;;;;0.60;69.60;;;;;;5052315;28;19943;-70
2024/01/23 02:28:55;;;;;;;;;;;0.60;69.60;;;;;;5051268;28;20321;-70
2024/01/23 02:31:21;;;;;;;;;;;0.60;69.80;;;;;;5051911;28;19927;-69
2024/01/23 02:33:47;;;;;;;;;;;0.50;69.90;;;;;;5051267;28;20425;-70
2024/01/23 02:36:13;;;;;;;;;;;0.50;69.90;;;;;;5052075;28;20436;-70
2024/01/23 02:38:39;;;;;;;;;;;0.50;69.90;;;;;;5052462;28;19923;-70
2024/01/23 02:41:05;;;;;;;;;;;0.50;70.00;;;;;;5051631;28;19965;-70
2024/01/23 02:43:31;;;;;;;;;;;0.50;69.20;;;;;;5067651;28;19924;-70
2024/01/23 02:45:57;;;;;;;;;;;0.50;69.80;;;;;;5052208;28;19999;-69
2024/01/23 02:48:22;;;;;;;;;;;0.50;69.80;;;;;;5052298;28;19917;-70
2024/01/23 02:50:48;;;;;;;;;;;0.40;69.80;;;;;;5050373;28;19920;-70
2024/01/23 02:53:14;;;;;;;;;;;0.40;69.90;;;;;;5052101;28;19962;-70
2024/01/23 02:55:41;;;;;;;;;;;0.40;70.00;;;;;;5050524;28;20293;-69
2024/01/23 02:58:09;;;;;;;;;;;0.30;70.00;;;;;;5067201;28;19927;-70
2024/01/23 03:00:37;;;;;;;;;;;0.30;70.00;;;;;;5066531;28;19925;-70
2024/01/23 03:03:04;;;;;;;;;;;0.30;70.40;;;;;;5052406;28;19978;-70
2024/01/23 03:05:29;;;;;;;;;;;0.20;69.80;;;;;;5051621;28;19956;-70
2024/01/23 03:07:55;;;;;;;;;;;0.20;70.40;;;;;;5051440;28;19923;-70
2024/01/23 03:10:21;;;;;;;;;;;0.20;70.20;;;;;;5065927;28;20015;-69
2024/01/23 03:12:47;;;;;;;;;;;0.20;70.30;;;;;;5052278;28;20327;-70
2024/01/23 03:15:13;;;;;;;;;;;0.20;70.30;;;;;;5036947;28;20019;-70
2024/01/23 03:17:39;;;;;;;;;;;0.10;70.30;;;;;;5054018;28;19913;-70
2024/01/23 03:20:05;;;;;;;;;;;0.10;70.30;;;;;;5069683;28;19966;-70
2024/01/23 03:22:31;;;;;;;;;;;0.10;70.30;;;;;;5070370;28;19915;-70
2024/01/23 03:24:58;;;;;;;;;;;0.10;71.30;;;;;;5070522;28;19916;-70
2024/01/23 03:27:24;;;;;;;;;;;0.00;70.40;;;;;;5053607;28;20024;-70
2024/01/23 03:29:51;;;;;;;;;;;0.00;70.30;;;;;;5055189;28;19917;-70
2024/01/23 03:32:17;;;;;;;;;;;0.00;70.10;;;;;;5069608;28;19946;-70
2024/01/23 03:34:43;;;;;;;;;;;-0.10;70.30;;;;;;5055295;28;19916;-70
2024/01/23 03:37:09;;;;;;;;;;;-0.10;70.60;;;;;;5054582;28;20341;-70
2024/01/23 03:39:35;;;;;;;;;;;-0.10;70.80;;;;;;5054988;28;20362;-70
2024/01/23 03:42:02;;;;;;;;;;;-0.20;71.00;;;;;;5054357;28;19921;-70
2024/01/23 03:44:29;;;;;;;;;;;-0.20;71.10;;;;;;5070252;28;20289;-70
2024/01/23 03:46:55;;;;;;;;;;;-0.20;70.90;;;;;;5070428;28;19961;-70
2024/01/23 03:49:22;;;;;;;;;;;-0.20;70.80;;;;;;5070384;28;19924;-70
2024/01/23 03:51:49;;;;;;;;;;;-0.30;70.90;;;;;;5055013;28;19921;-69
2024/01/23 03:54:15;;;;;;;;;;;-0.30;71.00;;;;;;5055295;28;19987;-70
2024/01/23 03:56:41;;;;;;;;;;;-0.40;70.80;;;;;;5037124;28;20586;-70
2024/01/23 03:59:07;;;;;;;;;;;-0.40;70.80;;;;;;5053820;28;19959;-70
2024/01/23 04:01:34;;;;;;;;;;;-0.40;71.00;;;;;;5053170;28;19920;-70
2024/01/23 04:04:00;;;;;;;;;;;-0.40;71.00;;;;;;5053783;28;19916;-70
2024/01/23 04:06:26;;;;;;;;;;;-0.50;70.30;;;;;;5054876;28;19956;-70
2024/01/23 04:08:52;;;;;;;;;;;-0.50;70.90;;;;;;5053242;28;19917;-70
2024/01/23 04:11:18;;;;;;;;;;;-0.50;71.00;;;;;;5069193;28;19928;-70
2024/01/23 04:13:44;;;;;;;;;;;-0.50;71.10;;;;;;5054058;28;20297;-71
2024/01/23 04:16:10;;;;;;;;;;;-0.50;71.00;;;;;;5052589;28;19917;-70
2024/01/23 04:18:36;;;;;;;;;;;-0.50;70.80;;;;;;5052668;28;19917;-70
2024/01/23 04:21:02;;;;;;;;;;;-0.60;70.70;;;;;;5052131;28;20370;-70
2024/01/23 04:23:28;;;;;;;;;;;-0.60;71.80;;;;;;5053882;28;19917;-70
2024/01/23 04:25:54;;;;;;;;;;;-0.60;71.00;;;;;;5054074;28;19943;-70
2024/01/23 04:28:20;;;;;;;;;;;-0.70;71.10;;;;;;5069910;28;19917;-70
2024/01/23 04:30:46;;;;;;;;;;;-0.70;71.20;;;;;;5069268;28;19928;-70
2024/01/23 04:33:12;;;;;;;;;;;-0.70;71.20;;;;;;5069450;28;19916;-70
2024/01/23 04:35:38;;;;;;;;;;;-0.70;71.20;;;;;;5053435;28;19920;-70
2024/01/23 04:38:04;;;;;;;;;;;-0.80;71.10;;;;;;5068838;28;19927;-70
2024/01/23 04:40:30;;;;;;;;;;;-0.90;71.00;;;;;;5051592;28;19924;-70
2024/01/23 04:42:56;;;;;;;;;;;-0.90;71.50;;;;;;5053651;28;20007;-69
2024/01/23 04:45:22;;;;;;;;;;;-0.80;71.40;;;;;;5068568;28;19952;-70
2024/01/23 04:47:48;;;;;;;;;;;-0.80;71.30;;;;;;5053562;28;20415;-70
2024/01/23 04:50:14;;;;;;;;;;;-0.80;71.30;;;;;;5052661;28;20340;-70
2024/01/23 04:52:40;;;;;;;;;;;-0.90;71.10;;;;;;5068751;28;19920;-70
2024/01/23 04:55:08;;;;;;;;;;;-0.90;72.00;;;;;;5053470;28;20296;-70
2024/01/23 04:57:34;;;;;;;;;;;-0.90;70.60;;;;;;5069243;28;19916;-69
2024/01/23 05:00:00;;;;;;;;;;;-0.90;71.40;;;;;;5053453;28;20425;-70
2024/01/23 05:02:26;;;;;;;;;;;-1.00;70.80;;;;;;5053002;28;19943;-70
2024/01/23 05:04:53;;;;;;;;;;;-1.10;71.40;;;;;;5051939;28;19921;-70
2024/01/23 05:07:19;;;;;;;;;;;-1.10;71.40;;;;;;5068455;28;19912;-70
2024/01/23 05:09:45;;;;;;;;;;;-1.20;71.50;;;;;;5068556;28;19932;-70
2024/01/23 05:12:11;;;;;;;;;;;-1.20;71.40;;;;;;5068428;28;19916;-70
2024/01/23 05:14:37;;;;;;;;;;;-1.30;71.60;;;;;;5053473;28;19927;-70
2024/01/23 05:17:03;;;;;;;;;;;-1.30;71.70;;;;;;5053025;28;20293;-70
2024/01/23 05:19:29;;;;;;;;;;;-1.40;71.70;;;;;;5051823;28;19928;-70
2024/01/23 05:21:56;;;;;;;;;;;-1.40;71.70;;;;;;5051169;28;19921;-71
2024/01/23 05:24:22;;;;;;;;;;;-1.50;71.20;;;;;;5068211;28;19920;-70
2024/01/23 05:26:48;;;;;;;;;;;-1.50;71.70;;;;;;5068054;28;19928;-70
2024/01/23 05:29:13;;;;;;;;;;;-1.50;71.80;;;;;;5052988;28;19920;-70
2024/01/23 05:31:39;;;;;;;;;;;-1.60;71.80;;;;;;5067516;28;19917;-70
2024/01/23 05:34:05;;;;;;;;;;;-1.70;71.80;;;;;;5052632;28;19929;-70
2024/01/23 05:36:31;;;;;;;;;;;-1.80;72.00;;;;;;5052913;28;19912;-70
2024/01/23 05:38:57;;;;;;;;;;;-1.80;72.10;;;;;;5067651;28;19920;-70
2024/01/23 05:41:23;;;;;;;;;;;-1.90;72.40;;;;;;5050770;28;19935;-70
2024/01/23 05:43:50;;;;;;;;;;;-1.90;72.30;;;;;;5067986;28;19924;-70
2024/01/23 05:46:17;;;;;;;;;;;-2.00;72.00;;;;;;5051179;28;20389;-71
2024/01/23 05:48:43;;;;;;;;;;;-2.00;72.00;;;;;;5052697;28;19927;-70
2024/01/23 05:51:09;;;;;;;;;;;-2.10;72.50;;;;;;5051699;28;20278;-70
2024/01/23 05:53:36;;;;;;;;;;;-2.10;72.30;;;;;;5052135;28;19924;-70
2024/01/23 05:56:02;;;;;;;;;;;-2.10;72.30;;;;;;5050565;28;19935;-70
2024/01/23 05:58:28;;;;;;;;;;;-2.10;72.60;;;;;;5050913;28;19921;-70
2024/01/23 06:00:54;;;;;;;;;;;-2.10;72.40;;;;;;5051610;28;19921;-70
2024/01/23 06:03:20;;;;;;;;;;;-2.20;72.20;;;;;;5067530;28;20015;-71
2024/01/23 06:05:45;;;;;;;;;;;-2.20;72.00;;;;;;5067188;28;19921;-70
2024/01/23 06:08:12;;;;;;;;;;;-2.30;72.10;;;;;;5051891;28;19917;-70
2024/01/23 06:10:38;;;;;;;;;;;-2.30;71.90;;;;;;5051456;28;19954;-70
2024/01/23 06:13:03;;;;;;;;;;;-2.40;72.00;;;;;;5067133;28;19974;-70
2024/01/23 06:15:31;;;;;;;;;;;-2.40;71.80;;;;;;5051575;28;19921;-70
2024/01/23 06:17:57;;;;;;;;;;;-2.40;71.90;;;;;;5067233;28;19917;-70
2024/01/23 06:20:23;;;;;;;;;;;-2.40;72.00;;;;;;5066537;28;19928;-70
2024/01/23 06:22:49;;;;;;;;;;;-2.50;72.10;;;;;;5050465;28;19932;-70
2024/01/23 06:25:15;;;;;;;;;;;-2.50;71.90;;;;;;5050212;28;19917;-70
2024/01/23 06:27:42;;;;;;;;;;;-2.50;71.80;;;;;;5050677;28;19912;-70
2024/01/23 06:30:11;;;;;;;;;;;-2.60;71.60;;;;;;5049809;28;19943;-70
2024/01/23 06:32:38;;;;;;;;;;;-2.60;71.70;;;;;;5050459;28;19913;-70
2024/01/23 06:35:05;;;;;;;;;;;-2.60;71.60;;;;;;5066912;28;20320;-70
2024/01/23 06:37:30;;;;;;;;;;;-2.60;71.60;;;;;;5050275;28;19913;-71
2024/01/23 06:39:56;;;;;;;;;;;-2.60;71.70;;;;;;5051739;28;19916;-70
2024/01/23 06:42:22;;;;;;;;;;;-2.70;71.40;;;;;;5051246;28;19917;-70
2024/01/23 06:44:48;;;;;;;;;;;-2.70;71.30;;;;;;5051647;28;19943;-70
2024/01/23 06:47:16;;;;;;;;;;;-2.70;71.20;;;;;;5052833;28;19917;-70
2024/01/23 06:49:42;;;;;;;;;;;-2.80;71.00;;;;;;5054765;28;19916;-70
2024/01/23 06:52:08;;;;;;;;;;;-2.80;70.40;;;;;;5055187;28;19929;-70
2024/01/23 06:54:34;;;;;;;;;;;-2.80;71.00;;;;;;5055809;28;19946;-70
2024/01/23 06:57:00;;;;;;;;;;;-2.80;70.90;;;;;;5055400;28;19924;-70
2024/01/23 06:59:27;;;;;;;;;;;-2.90;70.80;;;;;;5054807;28;20326;-70
2024/01/23 07:01:53;;;;;;;;;;;-2.90;70.60;;;;;;5053686;28;20293;-70
2024/01/23 07:04:18;;;;;;;;;;;-2.90;70.70;;;;;;5055650;28;19917;-71
2024/01/23 07:06:44;;;;;;;;;;;-2.80;70.70;;;;;;5053787;28;19977;-70
2024/01/23 07:09:11;;;;;;;;;;;-2.90;70.80;;;;;;5053924;28;19917;-70
2024/01/23 07:11:55;;;;;;;;;;;-2.80;70.90;;;;;;5055199;28;19921;-70
2024/01/23 07:14:21;;;;;;;;;;;-2.80;70.50;;;;;;5055765;28;19917;-70
2024/01/23 07:16:47;;;;;;;;;;;-2.80;70.30;;;;;;5055640;28;19916;-70
2024/01/23 07:19:13;;;;;;;;;;;-2.80;70.00;;;;;;5054460;28;19927;-70
2024/01/23 07:21:40;;;;;;;;;;;-2.80;70.20;;;;;;5055243;28;20367;-70
2024/01/23 07:24:07;;;;;;;;;;;-2.70;70.30;;;;;;5053936;28;19917;-70
2024/01/23 07:26:33;;;;;;;;;;;-2.70;70.00;;;;;;5070252;28;19917;-70
2024/01/23 07:28:59;;;;;;;;;;;-2.70;70.10;;;;;;5055116;28;20273;-70
2024/01/23 07:31:25;;;;;;;;;;;-2.60;70.10;;;;;;5054634;28;20208;-70
2024/01/23 07:33:52;;;;;;;;;;;-2.50;69.60;;;;;;5053671;28;19963;-70
2024/01/23 07:36:18;;;;;;;;;;;-2.50;70.50;;;;;;5053445;28;19917;-70
2024/01/23 07:38:43;;;;;;;;;;;-2.40;70.40;;;;;;5054804;28;19917;-70
2024/01/23 07:41:09;;;;;;;;;;;-2.30;70.30;;;;;;5054591;28;20066;-70
2024/01/23 07:43:36;;;;;;;;;;;-2.30;70.50;;;;;;5053483;28;20003;-70
2024/01/23 07:46:03;;;;;;;;;;;-2.20;70.30;;;;;;5053442;28;19917;-70
2024/01/23 07:48:29;;;;;;;;;;;-2.20;70.30;;;;;;5053303;28;19986;-70
2024/01/23 07:50:55;;;;;;;;;;;-2.10;70.30;;;;;;5052509;28;20429;-70
2024/01/23 07:53:21;;;;;;;;;;;-2.00;69.70;;;;;;5054706;28;20360;-70
2024/01/23 07:55:47;;;;;;;;;;;-1.90;70.40;;;;;;5054204;28;19916;-70
2024/01/23 07:58:13;;;;;;;;;;;-1.90;70.30;;;;;;5054245;28;19923;-70
2024/01/23 08:00:51;;;;;;;;;;;-1.90;70.30;;;;;;5052424;28;19960;-70
2024/01/23 08:03:17;;;;;;;;;;;-1.80;70.10;;;;;;5052989;28;19986;-70
2024/01/23 08:05:43;;;;;;;;;;;-1.70;70.20;;;;;;5054254;28;19917;-71
2024/01/23 08:08:09;;;;;;;;;;;-1.60;70.10;;;;;;5052841;28;19967;-70
2024/01/23 08:10:35;;;;;;;;;;;-1.50;70.40;;;;;;5068940;28;19931;-70
2024/01/23 08:13:02;;;;;;;;;;;-1.40;70.70;;;;;;5054222;28;20413;-70
2024/01/23 08:15:28;;;;;;;;;;;-1.30;70.80;;;;;;5053690;28;19916;-70
2024/01/23 08:17:55;;;;;;;;;;;-1.10;71.10;;;;;;5054037;28;19924;-70
2024/01/23 08:20:21;;;;;;;;;;;-1.10;71.30;;;;;;5068548;28;19963;-70
2024/01/23 08:22:47;;;;;;;;;;;-1.00;70.70;;;;;;5054058;28;19912;-70
2024/01/23 08:25:13;;;;;;;;;;;-1.00;71.40;;;;;;5052427;28;20340;-70
2024/01/23 08:27:39;;;;;;;;;;;-0.80;71.30;;;;;;5052669;28;19913;-70
2024/01/23 08:30:06;;;;;;;;;;;-0.70;71.10;;;;;;5053215;28;19925;-70
2024/01/23 08:32:31;;;;;;;;;;;-0.50;70.80;;;;;;5053586;28;19913;-70
2024/01/23 08:34:57;;;;;;;;;;;-0.40;71.10;;;;;;5068868;28;20008;-70
2024/01/23 08:37:24;;;;;;;;;;;-0.30;71.10;;;;;;5053364;28;19920;-70
2024/01/23 08:39:50;;;;;;;;;;;0.00;71.00;;;;;;5052540;28;20366;-70
2024/01/23 08:42:16;;;;;;;;;;;0.30;70.40;;;;;;5068446;28;19928;-70
2024/01/23 08:44:46;;;;;;;;;;;0.70;69.60;;;;;;5069045;28;19986;-70
2024/01/23 08:47:12;;;;;;;;;;;1.00;69.20;;;;;;5053498;28;20370;-70
2024/01/23 08:49:38;;;;;;;;;;;1.40;68.60;;;;;;5051817;28;19920;-70
2024/01/23 08:52:04;;;;;;;;;;;1.70;68.10;;;;;;5051842;28;19920;-70
2024/01/23 08:54:31;;;;;;;;;;;2.00;67.60;;;;;;5051919;28;19948;-70
2024/01/23 08:56:57;;;;;;;;;;;2.30;67.30;;;;;;5053480;28;19916;-70
2024/01/23 08:59:24;;;;;;;;;;;2.40;67.20;;;;;;5051721;28;19974;-70
2024/01/23 09:01:51;;;;;;;;;;;2.40;67.30;;;;;;5052715;28;20385;-70
2024/01/23 09:04:17;;;;;;;;;;;2.30;68.10;;;;;;5053416;28;19917;-70
2024/01/23 09:06:43;;;;;;;;;;;2.10;69.20;;;;;;5053080;28;19917;-70
2024/01/23 09:09:09;;;;;;;;;;;2.10;69.60;;;;;;5052855;28;19963;-70
2024/01/23 09:11:35;;;;;;;;;;;2.00;70.00;;;;;;5052330;28;20050;-70
2024/01/23 09:14:00;;;;;;;;;;;1.90;71.10;;;;;;5035067;28;20007;-70
2024/01/23 09:16:26;;;;;;;;;;;2.10;71.30;;;;;;5052647;28;19916;-70
2024/01/23 09:18:52;;;;;;;;;;;2.30;70.50;;;;;;5053228;28;20007;-70
2024/01/23 09:21:18;;;;;;;;;;;2.80;68.80;;;;;;5052498;28;20280;-70
2024/01/23 09:23:44;;;;;;;;;;;3.10;67.80;;;;;;5053079;28;20351;-70
2024/01/23 09:26:11;;;;;;;;;;;3.50;67.30;;;;;;5067874;28;20005;-70
2024/01/23 09:28:37;;;;;;;;;;;3.80;66.30;;;;;;5053058;28;20007;-70
2024/01/23 09:31:03;;;;;;;;;;;4.30;65.90;;;;;;5051263;28;19991;-70
2024/01/23 09:33:29;;;;;;;;;;;4.70;65.20;;;;;;5051359;28;20003;-71
2024/01/23 09:35:55;;;;;;;;;;;4.90;64.90;;;;;;5052241;28;19948;-71
2024/01/23 09:38:21;;;;;;;;;;;5.10;64.80;;;;;;5050915;28;19927;-70
2024/01/23 09:40:49;;;;;;;;;;;5.20;64.20;;;;;;5050746;28;20392;-71
2024/01/23 09:43:19;;;;;;;;;;;5.10;63.50;;;;;;5051153;28;20024;-71
2024/01/23 09:45:47;;;;;;;;;;;5.00;63.90;;;;;;5067771;28;20395;-70
2024/01/23 09:48:15;;;;;;;;;;;5.00;63.70;;;;;;5051443;28;19917;-71
2024/01/23 09:50:42;;;;;;;;;;;5.10;63.70;;;;;;5051667;28;19920;-71
2024/01/23 09:53:10;;;;;;;;;;;5.10;63.60;;;;;;5051087;28;19927;-71
2024/01/23 09:55:36;;;;;;;;;;;5.10;63.40;;;;;;5050964;28;20002;-71
2024/01/23 09:58:20;;;;;;;;;;;5.20;63.10;;;;;;5050986;28;19924;-70
2024/01/23 10:00:47;;;;;;;;;;;5.30;62.70;;;;;;5050185;28;19920;-70
2024/01/23 10:03:14;;;;;;;;;;;5.40;61.40;;;;;;5050701;28;19924;-70
2024/01/23 10:05:40;;;;;;;;;;;5.70;61.20;;;;;;5051862;28;19920;-70
2024/01/23 10:08:06;;;;;;;;;;;6.40;59.70;;;;;;5050760;28;19925;-70
2024/01/23 10:10:31;;;;;;;;;;;7.30;58.00;;;;;;5066604;28;19928;-70
2024/01/23 10:12:58;;;;;;;;;;;7.50;56.60;;;;;;5052005;28;19923;-70
2024/01/23 10:15:25;;;;;;;;;;;7.60;56.30;;;;;;5051526;28;20124;-70
2024/01/23 10:17:53;;;;;;;;;;;8.30;55.60;;;;;;5050659;28;19917;-71
2024/01/23 10:20:19;;;;;;;;;;;10.40;51.40;;;;;;5066410;28;19916;-71
2024/01/23 10:22:45;;;;;;;;;;;10.70;49.70;;;;;;5067219;28;19924;-71
2024/01/23 10:25:20;;;;;;;;;;;12.20;46.70;;;;;;5050256;28;20011;-71
2024/01/23 10:28:08;;;;;;;;;;;12.40;45.20;;;;;;5050691;28;19916;-71
2024/01/23 10:30:38;;;;;;;;;;;12.50;44.60;;;;;;5049605;28;20004;-71
2024/01/23 10:33:05;;;;;;;;;;;11.90;44.50;;;;;;5050364;28;19924;-71
2024/01/23 10:35:33;;;;;;;;;;;11.50;46.00;;;;;;5066674;28;19917;-71
2024/01/23 10:38:02;;;;;;;;;;;11.60;46.50;;;;;;5050451;28;19916;-71
2024/01/23 10:40:29;;;;;;;;;;;12.70;42.20;;;;;;5066118;28;19959;-71
2024/01/23 10:42:56;;;;;;;;;;;12.40;42.80;;;;;;5066964;28;19932;-71
2024/01/23 10:45:23;;;;;;;;;;;13.00;42.30;;;;;;5033257;28;19967;-71
2024/01/23 10:47:51;;;;;;;;;;;13.10;39.70;;;;;;5067090;28;20289;-71
2024/01/23 10:50:17;;;;;;;;;;;13.30;40.40;;;;;;5051049;28;19916;-71
2024/01/23 10:52:46;;;;;;;;;;;14.30;39.40;;;;;;5050495;28;19913;-72
2024/01/23 10:55:13;;;;;;;;;;;14.70;38.10;;;;;;5066460;28;20023;-72
2024/01/23 10:57:39;;;;;;;;;;;14.50;36.90;;;;;;5066822;28;19916;-72
2024/01/23 11:00:10;;;;;;;;;;;13.90;38.80;;;;;;5065951;28;20371;-72
2024/01/23 11:03:14;;;;;;;;;;;14.60;38.90;;;;;;5050235;28;19917;-72
2024/01/23 11:06:00;;;;;;;;;;;14.70;37.20;;;;;;5051155;28;20023;-72
2024/01/23 11:08:32;;;;;;;;;;;14.10;37.70;;;;;;5049840;28;19974;-71
2024/01/23 11:11:09;;;;;;;;;;;14.30;39.00;;;;;;5049483;28;19916;-71
2024/01/23 11:14:13;;;;;;;;;;;13.90;38.10;;;;;;5050084;28;19928;-71
2024/01/23 11:16:39;;;;;;;;;;;12.90;39.50;;;;;;5051043;28;19916;-71
2024/01/23 11:19:05;;;;;;;;;;;12.30;41.10;;;;;;5066670;28;19989;-71
2024/01/23 11:21:31;;;;;;;;;;;11.80;42.30;;;;;;5066075;28;19917;-71
2024/01/23 11:24:15;;;;;;;;;;;11.50;43.30;;;;;;5051230;28;19931;-72
2024/01/23 11:26:41;;;;;;;;;;;11.00;42.90;;;;;;5049837;28;19959;-71
2024/01/23 11:29:07;;;;;;;;;;;10.80;43.90;;;;;;5049876;28;19924;-71
2024/01/23 11:31:50;;;;;;;;;;;10.60;43.70;;;;;;5049577;28;19924;-71
2024/01/23 11:34:26;;;;;;;;;;;10.20;44.40;;;;;;5053002;28;19920;-71
2024/01/23 11:36:52;;;;;;;;;;;10.00;45.50;;;;;;5054708;28;19995;-71
2024/01/23 11:42:06;;;;;;;;;;;9.50;46.40;;;;;;5053221;28;19978;-71
2024/01/23 11:44:32;;;;;;;;;;;9.40;47.40;;;;;;5054938;28;20007;-71
2024/01/23 11:47:03;;;;;;;;;;;10.80;46.60;;;;;;5054636;28;19912;-71
2024/01/23 11:49:29;;;;;;;;;;;11.40;43.60;;;;;;5054787;28;19963;-71
2024/01/23 11:51:55;;;;;;;;;;;11.80;43.10;;;;;;5052600;28;20443;-71
2024/01/23 11:54:21;;;;;;;;;;;12.30;41.30;;;;;;5053023;28;20277;-71
2024/01/23 11:56:47;;;;;;;;;;;12.20;41.50;;;;;;5054379;28;19971;-71
2024/01/23 11:59:13;;;;;;;;;;;12.10;41.40;;;;;;5053158;28;19917;-71
2024/01/23 12:01:40;;;;;;;;;;;12.20;42.00;;;;;;5053885;28;20441;-71
2024/01/23 12:04:06;;;;;;;;;;;13.20;39.60;;;;;;5054581;28;20432;-71
2024/01/23 12:06:32;;;;;;;;;;;14.00;37.60;;;;;;5069440;28;19917;-71
2024/01/23 12:08:58;;;;;;;;;;;14.40;36.60;;;;;;5069501;28;19925;-71
2024/01/23 12:11:24;;;;;;;;;;;14.00;36.50;;;;;;5052298;28;20274;-71
2024/01/23 12:13:51;;;;;;;;;;;13.70;37.10;;;;;;5054239;28;19916;-71
2024/01/23 12:16:18;;;;;;;;;;;13.50;37.60;;;;;;5052588;28;19939;-71
2024/01/23 12:18:45;;;;;;;;;;;13.80;37.70;;;;;;5054180;28;20369;-70
2024/01/23 12:21:11;;;;;;;;;;;14.00;37.40;;;;;;5068921;28;19920;-71
2024/01/23 12:23:38;;;;;;;;;;;13.50;38.00;;;;;;5069368;28;19917;-71
2024/01/23 12:26:04;;;;;;;;;;;12.70;38.50;;;;;;5069098;28;19916;-71
2024/01/23 12:28:32;;;;;;;;;;;12.60;39.30;;;;;;5052588;28;19921;-71
2024/01/23 12:30:58;;;;;;;;;;;12.60;40.10;;;;;;5068967;28;19920;-71
2024/01/23 12:33:25;;;;;;;;;;;12.80;39.00;;;;;;5052430;28;19921;-71
2024/01/23 12:35:52;;;;;;;;;;;12.70;39.40;;;;;;5052299;28;20504;-71
2024/01/23 12:38:20;;;;;;;;;;;12.40;40.20;;;;;;5068970;28;19917;-71
2024/01/23 12:40:47;;;;;;;;;;;12.30;40.60;;;;;;5051587;28;19932;-71
2024/01/23 12:43:15;;;;;;;;;;;12.20;40.90;;;;;;5068822;28;19962;-71
2024/01/23 12:45:41;;;;;;;;;;;12.30;41.00;;;;;;5052358;28;19956;-71
2024/01/23 12:50:55;;;;;;;;;;;13.80;37.20;;;;;;5051973;28;19920;-71
2024/01/23 12:53:21;;;;;;;;;;;13.40;37.80;;;;;;5052013;28;19917;-71
2024/01/23 12:55:47;;;;;;;;;;;13.70;38.20;;;;;;5051850;28;19923;-71
2024/01/23 12:58:13;;;;;;;;;;;14.00;37.00;;;;;;5053356;28;20034;-71
2024/01/23 13:00:38;;;;;;;;;;;14.50;36.30;;;;;;5052628;28;19925;-71
2024/01/23 13:03:06;;;;;;;;;;;14.70;35.50;;;;;;5053370;28;19917;-71
2024/01/23 13:05:32;;;;;;;;;;;15.20;35.40;;;;;;5068212;28;19920;-71
2024/01/23 13:07:58;;;;;;;;;;;15.20;34.40;;;;;;5051858;28;19917;-71
2024/01/23 13:10:24;;;;;;;;;;;14.60;35.30;;;;;;5051186;28;20372;-71
2024/01/23 13:12:52;;;;;;;;;;;13.80;36.60;;;;;;5051861;28;19923;-71
2024/01/23 13:15:18;;;;;;;;;;;14.10;36.40;;;;;;5051553;28;19916;-71
2024/01/23 13:17:44;;;;;;;;;;;13.70;37.10;;;;;;5068388;28;19912;-71
2024/01/23 13:20:10;;;;;;;;;;;13.50;37.70;;;;;;5051950;28;19923;-71
2024/01/23 13:22:48;;;;;;;;;;;13.20;37.50;;;;;;5051602;28;19925;-71
2024/01/23 13:25:17;;;;;;;;;;;13.40;37.50;;;;;;5052595;28;19920;-71
2024/01/23 13:28:02;;;;;;;;;;;13.90;36.90;;;;;;5052900;28;20420;-71
2024/01/23 13:30:30;;;;;;;;;;;15.00;34.80;;;;;;5050560;28;20032;-71
2024/01/23 13:32:56;;;;;;;;;;;15.60;33.80;;;;;;5051601;28;19917;-70
2024/01/23 13:35:22;;;;;;;;;;;16.70;31.80;;;;;;5067769;28;19917;-70
2024/01/23 13:37:49;;;;;;;;;;;17.50;29.90;;;;;;5051288;28;20432;-71
2024/01/23 13:40:16;;;;;;;;;;;17.60;29.70;;;;;;5050962;28;19917;-71
2024/01/23 13:42:42;;;;;;;;;;;17.30;29.80;;;;;;5051233;28;19928;-71
2024/01/23 13:45:09;;;;;;;;;;;16.30;31.60;;;;;;5050918;28;19951;-71
2024/01/23 13:47:55;;;;;;;;;;;16.10;31.80;;;;;;5068084;28;20286;-71
2024/01/23 13:50:21;;;;;;;;;;;16.10;31.90;;;;;;5051629;28;19924;-72
2024/01/23 13:53:08;;;;;;;;;;;16.40;32.70;;;;;;5067722;28;19913;-71
2024/01/23 13:55:34;;;;;;;;;;;17.50;30.00;;;;;;5066744;28;19916;-71
2024/01/23 13:58:00;;;;;;;;;;;19.50;28.40;;;;;;5050884;28;20342;-71
2024/01/23 14:00:27;;;;;;;;;;;20.90;26.50;;;;;;5051343;28;19924;-71
2024/01/23 14:02:52;;;;;;;;;;;20.80;25.70;;;;;;5067554;28;20345;-71
2024/01/23 14:05:19;;;;;;;;;;;21.00;25.60;;;;;;5050657;28;19917;-71
2024/01/23 14:07:45;;;;;;;;;;;20.50;26.00;;;;;;5050902;28;20422;-71
2024/01/23 14:10:16;;;;;;;;;;;20.20;25.80;;;;;;5049969;28;19916;-71
2024/01/23 14:13:00;;;;;;;;;;;20.60;25.80;;;;;;5050977;28;20332;-71
2024/01/23 14:15:26;;;;;;;;;;;19.90;26.30;;;;;;5067029;28;20432;-71
2024/01/23 14:17:52;;;;;;;;;;;19.60;26.30;;;;;;5051859;28;19917;-71
2024/01/23 14:20:20;;;;;;;;;;;18.90;27.20;;;;;;5049713;28;20370;-71
2024/01/23 14:22:47;;;;;;;;;;;18.60;27.30;;;;;;5050757;28;19923;-71
2024/01/23 14:25:13;;;;;;;;;;;18.00;27.90;;;;;;5066919;28;19924;-71
2024/01/23 14:27:40;;;;;;;;;;;17.40;28.00;;;;;;5050530;28;19959;-71